createdAt,value
2018-09-22T00:00:22.686Z,60.61
2018-09-22T00:01:03.111Z,60.61
2018-09-22T00:01:43.601Z,60.32
2018-09-22T00:02:24.609Z,60.7
2018-09-22T00:03:04.759Z,60.41
2018-09-22T00:03:45.161Z,60.54
2018-09-22T00:04:25.608Z,60.44
2018-09-22T00:05:06.391Z,59.97
2018-09-22T00:05:47.273Z,59.68
2018-09-22T00:06:28.731Z,59.87
2018-09-22T00:07:09.152Z,59.87
2018-09-22T00:07:50.677Z,59.87
2018-09-22T00:08:31.234Z,59.75
2018-09-22T00:09:11.827Z,60.22
2018-09-22T00:09:52.132Z,60.03
2018-09-22T00:10:32.535Z,60.7
2018-09-22T00:11:13.180Z,60.41
2018-09-22T00:11:54.033Z,59.97
2018-09-22T00:12:34.549Z,60.32
2018-09-22T00:13:14.892Z,60.32
2018-09-22T00:13:55.601Z,59.94
2018-09-22T00:14:36.051Z,60.51
2018-09-22T00:15:16.529Z,60.32
2018-09-22T00:15:56.844Z,60.32
2018-09-22T00:16:37.262Z,60.41
2018-09-22T00:17:18.044Z,60.41
2018-09-22T00:17:58.375Z,60.41
2018-09-22T00:18:38.770Z,60.32
2018-09-22T00:19:20.180Z,60.32
2018-09-22T00:20:00.441Z,60.32
2018-09-22T00:21:54.843Z,60.32
2018-09-22T00:22:35.389Z,60.44
2018-09-22T00:23:16.545Z,60.44
2018-09-22T00:23:57.312Z,60.64
2018-09-22T00:24:39.142Z,60.06
2018-09-22T00:25:19.491Z,60.35
2018-09-22T00:26:00.997Z,60.32
2018-09-22T00:26:41.413Z,60.35
2018-09-22T00:27:21.910Z,60.22
2018-09-22T00:28:02.473Z,60.35
2018-09-22T00:28:42.783Z,60.44
2018-09-22T00:29:23.291Z,60.16
2018-09-22T00:30:03.873Z,60.16
2018-09-22T00:30:44.899Z,60.03
2018-09-22T00:31:27.717Z,60.25
2018-09-22T00:32:08.109Z,60.25
2018-09-22T00:32:49.595Z,60.41
2018-09-22T00:33:32.135Z,60.32
2018-09-22T00:34:11.661Z,60.61
2018-09-22T00:34:52.065Z,60.51
2018-09-22T00:35:32.662Z,60.7
2018-09-22T00:36:13.510Z,60.61
2018-09-22T00:36:54.502Z,60.7
2018-09-22T00:37:34.990Z,60.8
2018-09-22T00:38:15.394Z,60.99
2018-09-22T00:38:55.789Z,60.7
2018-09-22T00:39:36.817Z,60.99
2018-09-22T00:40:17.549Z,61.66
2018-09-22T00:42:15.169Z,60.7
2018-09-22T00:42:55.613Z,60.89
2018-09-22T00:43:36.059Z,60.89
2018-09-22T00:44:16.435Z,61.37
2018-09-22T00:44:56.878Z,61.08
2018-09-22T00:45:37.450Z,61.08
2018-09-22T00:46:17.806Z,61.28
2018-09-22T00:46:58.255Z,61.37
2018-09-22T00:47:38.800Z,61.28
2018-09-22T00:48:19.223Z,61.18
2018-09-22T00:48:59.687Z,61.37
2018-09-22T00:49:40.100Z,61.47
2018-09-22T00:50:20.539Z,61.47
2018-09-22T00:51:01.004Z,61.37
2018-09-22T00:51:41.674Z,61.28
2018-09-22T00:52:22.138Z,61.08
2018-09-22T00:53:02.825Z,61.08
2018-09-22T00:53:43.490Z,61.94
2018-09-22T00:54:24.005Z,61.47
2018-09-22T00:55:04.711Z,61.66
2018-09-22T00:55:45.192Z,62.14
2018-09-22T00:56:25.580Z,62.23
2018-09-22T00:57:07.209Z,61.85
2018-09-22T00:57:48.456Z,62.23
2018-09-22T00:58:28.881Z,61.28
2018-09-22T00:59:09.361Z,61.47
2018-09-22T00:59:49.753Z,61.57
2018-09-22T01:00:30.141Z,61.82
2018-09-22T01:01:10.575Z,62.49
2018-09-22T01:01:50.968Z,62.4
2018-09-22T01:12:20.288Z,62.33
2018-09-22T01:12:58.814Z,62.43
2018-09-22T01:13:40.463Z,62.52
2018-09-22T01:14:21.264Z,62.4
2018-09-22T01:15:02.100Z,62.3
2018-09-22T01:15:43.190Z,62.2
2018-09-22T01:16:23.677Z,62.52
2018-09-22T01:17:04.121Z,62.4
2018-09-22T01:17:44.650Z,62.68
2018-09-22T01:18:25.782Z,62.97
2018-09-22T01:19:06.288Z,62.33
2018-09-22T01:19:47.293Z,62.52
2018-09-22T01:20:28.265Z,62.97
2018-09-22T01:21:09.144Z,62.62
2018-09-22T01:21:49.919Z,63.1
2018-09-22T01:22:30.787Z,62.33
2018-09-22T01:23:11.309Z,62.52
2018-09-22T01:23:53.072Z,62.04
2018-09-22T01:24:33.505Z,62.4
2018-09-22T01:25:14.537Z,62.71
2018-09-22T01:25:55.280Z,62.52
2018-09-22T01:26:37.843Z,62.43
2018-09-22T01:27:18.444Z,62.33
2018-09-22T01:28:00.503Z,62.62
2018-09-22T01:31:22.865Z,62.52
2018-09-22T01:32:03.742Z,62.87
2018-09-22T01:32:44.138Z,62.77
2018-09-22T01:33:24.516Z,62.68
2018-09-22T01:34:05.149Z,62.68
2018-09-22T01:34:45.698Z,62.68
2018-09-22T01:35:26.124Z,62.68
2018-09-22T01:36:06.663Z,62.68
2018-09-22T01:36:47.020Z,62.77
2018-09-22T01:37:27.438Z,62.43
2018-09-22T01:38:07.837Z,62.68
2018-09-22T01:38:48.462Z,62.87
2018-09-22T01:39:28.895Z,63
2018-09-22T01:40:09.455Z,62.9
2018-09-22T01:40:49.705Z,62.81
2018-09-22T01:41:30.102Z,62.71
2018-09-22T01:42:10.871Z,62.68
2018-09-22T01:42:51.234Z,62.71
2018-09-22T01:43:32.375Z,62.77
2018-09-22T01:44:12.929Z,62.71
2018-09-22T01:44:53.930Z,62.97
2018-09-22T01:45:34.472Z,62.9
2018-09-22T01:49:30.697Z,62.81
2018-09-22T01:50:16.069Z,62.52
2018-09-22T01:52:15.923Z,62.71
2018-09-22T01:53:03.757Z,63
2018-09-22T01:53:44.184Z,62.71
2018-09-22T01:54:25.160Z,62.52
2018-09-22T01:55:06.784Z,62.43
2018-09-22T01:55:48.328Z,62.71
2018-09-22T01:56:29.122Z,62.52
2018-09-22T01:57:10.148Z,62.62
2018-09-22T01:57:51.757Z,62.71
2018-09-22T01:58:32.109Z,62.81
2018-09-22T01:59:13.186Z,63
2018-09-22T01:59:54.002Z,62.71
2018-09-22T02:00:34.939Z,63.1
2018-09-22T02:01:16.182Z,62.62
2018-09-22T02:01:57.382Z,62.71
2018-09-22T02:02:37.846Z,62.81
2018-09-22T02:03:21.714Z,63
2018-09-22T02:04:01.774Z,62.81
2018-09-22T02:04:42.796Z,62.43
2018-09-22T02:05:24.536Z,63
2018-09-22T02:06:05.080Z,62.43
2018-09-22T02:06:47.842Z,62.81
2018-09-22T02:07:32.181Z,62.43
2018-09-22T02:08:13.332Z,62.62
2018-09-22T02:08:53.727Z,62.9
2018-09-22T02:09:35.746Z,62.9
2018-09-22T02:10:15.136Z,62.81
2018-09-22T02:10:55.605Z,62.81
2018-09-22T02:11:36.349Z,62.97
2018-09-22T02:12:17.507Z,63.48
2018-09-22T02:12:57.940Z,63.35
2018-09-22T02:13:38.366Z,63.54
2018-09-22T02:14:19.876Z,63.64
2018-09-22T02:15:00.258Z,64.02
2018-09-22T02:15:40.514Z,63.83
2018-09-22T02:16:21.124Z,64.02
2018-09-22T02:17:02.025Z,64.02
2018-09-22T02:17:43.822Z,63.83
2018-09-22T02:18:24.181Z,64.02
2018-09-22T02:19:04.519Z,64.02
2018-09-22T02:19:48.624Z,63.83
2018-09-22T02:20:30.339Z,64.02
2018-09-22T02:21:13.767Z,63.93
2018-09-22T02:21:54.271Z,64.12
2018-09-22T02:22:34.741Z,64.5
2018-09-22T02:23:17.389Z,65.08
2018-09-22T02:23:59.462Z,64.31
2018-09-22T02:24:44.186Z,64.4
2018-09-22T02:25:25.054Z,64.22
2018-09-22T02:26:08.297Z,64.69
2018-09-22T02:26:48.487Z,64.5
2018-09-22T02:28:47.043Z,64.4
2018-09-22T02:29:28.329Z,64.4
2018-09-22T02:31:50.362Z,64.31
2018-09-22T02:34:10.532Z,64.79
2018-09-22T02:36:02.699Z,64.69
2018-09-22T02:36:43.512Z,64.5
2018-09-22T02:37:24.185Z,64.31
2018-09-22T02:38:07.084Z,64.5
2018-09-22T02:38:47.474Z,64.59
2018-09-22T02:39:27.969Z,64.59
2018-09-22T02:40:09.891Z,64.22
2018-09-22T02:40:52.098Z,64.12
2018-09-22T02:41:33.020Z,64.02
2018-09-22T02:42:13.432Z,64.02
2018-09-22T02:42:53.949Z,64.22
2018-09-22T02:43:35.583Z,63.83
2018-09-22T02:44:19.426Z,64.22
2018-09-22T02:45:00.222Z,64.31
2018-09-22T02:45:40.627Z,64.12
2018-09-22T02:46:21.111Z,64.15
2018-09-22T02:47:03.598Z,64.02
2018-09-22T02:47:44.136Z,63.86
2018-09-22T02:48:24.987Z,63.93
2018-09-22T02:49:09.629Z,63.29
2018-09-22T02:49:49.631Z,64.05
2018-09-22T02:50:32.043Z,63.64
2018-09-22T02:51:14.787Z,63.76
2018-09-22T02:51:56.629Z,63.86
2018-09-22T02:52:37.045Z,64.05
2018-09-22T02:53:17.540Z,63.57
2018-09-22T02:53:58.177Z,63.76
2018-09-22T02:54:38.672Z,62.9
2018-09-22T02:55:19.040Z,63.1
2018-09-22T02:56:01.229Z,63.48
2018-09-22T02:56:41.674Z,63.29
2018-09-22T02:57:22.349Z,63.19
2018-09-22T02:58:04.866Z,63.19
2018-09-22T02:58:45.031Z,62.81
2018-09-22T02:59:25.267Z,62.9
2018-09-22T03:00:05.769Z,63.76
2018-09-22T03:00:47.125Z,63.39
2018-09-22T03:01:27.351Z,63.29
2018-09-22T03:02:07.905Z,63.29
2018-09-22T03:02:50.558Z,63.29
2018-09-22T03:04:40.750Z,63.19
2018-09-22T03:07:01.891Z,63.54
2018-09-22T03:07:43.181Z,63.26
2018-09-22T03:08:25.017Z,63.57
2018-09-22T03:09:08.268Z,63.67
2018-09-22T03:09:48.679Z,63.35
2018-09-22T03:10:30.669Z,63.39
2018-09-22T03:11:14.849Z,63.48
2018-09-22T03:11:56.345Z,63.39
2018-09-22T03:12:37.118Z,63.35
2018-09-22T03:13:20.909Z,63.83
2018-09-22T03:14:01.393Z,63.83
2018-09-22T03:14:41.815Z,64.05
2018-09-22T03:15:24.309Z,63.83
2018-09-22T03:16:07.055Z,63.39
2018-09-22T03:16:47.401Z,63.83
2018-09-22T03:17:28.531Z,63.26
2018-09-22T03:18:17.512Z,63.73
2018-09-22T03:18:57.765Z,63.35
2018-09-22T03:19:38.543Z,63.83
2018-09-22T03:20:19.157Z,63.86
2018-09-22T03:21:00.357Z,63.26
2018-09-22T03:21:42.474Z,63.76
2018-09-22T03:22:23.482Z,63.54
2018-09-22T03:23:03.903Z,63.48
2018-09-22T03:23:44.323Z,63.48
2018-09-22T03:24:24.755Z,63.35
2018-09-22T03:25:05.170Z,63.39
2018-09-22T03:25:45.556Z,63.48
2018-09-22T03:26:26.502Z,63.29
2018-09-22T03:27:07.026Z,63.45
2018-09-22T03:27:47.960Z,63.45
2018-09-22T03:30:07.964Z,63.45
2018-09-22T03:30:49.144Z,63.54
2018-09-22T03:31:29.606Z,64.02
2018-09-22T03:32:10.026Z,64.12
2018-09-22T03:32:50.527Z,63.93
2018-09-22T03:33:30.854Z,64.22
2018-09-22T03:34:11.396Z,64.4
2018-09-22T03:34:52.000Z,64.12
2018-09-22T03:35:32.330Z,63.83
2018-09-22T03:36:12.803Z,64.02
2018-09-22T03:36:53.200Z,63.83
2018-09-22T03:37:33.554Z,63.35
2018-09-22T03:38:14.049Z,63.64
2018-09-22T03:38:54.421Z,63.54
2018-09-22T03:39:35.286Z,63.64
2018-09-22T03:40:15.864Z,63.83
2018-09-22T03:40:56.297Z,64.22
2018-09-22T03:41:37.562Z,64.31
2018-09-22T03:42:17.934Z,64.22
2018-09-22T03:42:58.408Z,64.12
2018-09-22T03:43:38.715Z,64.22
2018-09-22T03:44:19.153Z,64.4
2018-09-22T03:44:59.662Z,64.5
2018-09-22T03:45:40.038Z,64.59
2018-09-22T03:46:20.441Z,64.12
2018-09-22T03:47:00.790Z,64.5
2018-09-22T03:47:41.253Z,64.4
2018-09-22T03:48:22.497Z,64.5
2018-09-22T03:49:03.582Z,65.08
2018-09-22T03:49:45.662Z,64.98
2018-09-22T03:50:25.894Z,65.14
2018-09-22T03:51:07.222Z,64.95
2018-09-22T03:51:50.455Z,65.14
2018-09-22T03:52:30.827Z,65.04
2018-09-22T03:53:11.257Z,65.04
2018-09-22T03:53:51.737Z,64.85
2018-09-22T03:54:35.133Z,64.95
2018-09-22T03:55:15.534Z,65.23
2018-09-22T03:55:55.890Z,65.42
2018-09-22T03:56:36.306Z,65.52
2018-09-22T03:57:16.684Z,65.14
2018-09-22T03:57:57.084Z,65.52
2018-09-22T03:58:37.557Z,65.33
2018-09-22T03:59:18.006Z,65.33
2018-09-22T03:59:58.300Z,65.33
2018-09-22T04:00:38.816Z,65.33
2018-09-22T04:01:19.261Z,65.81
2018-09-22T04:01:59.955Z,65.52
2018-09-22T04:02:40.218Z,66.09
2018-09-22T04:03:20.559Z,66.19
2018-09-22T04:04:02.195Z,66.19
2018-09-22T04:04:42.554Z,66.19
2018-09-22T04:05:23.393Z,65.71
2018-09-22T04:06:03.467Z,65.81
2018-09-22T04:06:43.836Z,66
2018-09-22T04:07:24.176Z,66.38
2018-09-22T04:08:04.610Z,66.47
2018-09-22T04:08:45.091Z,66.67
2018-09-22T04:09:25.403Z,66.96
2018-09-22T04:10:05.847Z,66.96
2018-09-22T04:10:46.327Z,66.96
2018-09-22T04:11:26.659Z,66.92
2018-09-22T04:12:07.098Z,67.02
2018-09-22T04:12:47.461Z,66.83
2018-09-22T04:13:27.899Z,67.02
2018-09-22T04:14:08.273Z,66.92
2018-09-22T04:14:48.709Z,67.11
2018-09-22T04:15:29.122Z,67.3
2018-09-22T04:16:09.513Z,67.21
2018-09-22T04:16:49.884Z,67.49
2018-09-22T04:17:30.277Z,67.49
2018-09-22T04:18:10.722Z,68.07
2018-09-22T04:18:51.167Z,68.35
2018-09-22T04:19:31.557Z,68.07
2018-09-22T04:20:11.978Z,68.35
2018-09-22T04:20:52.400Z,68.07
2018-09-22T04:21:32.764Z,68.93
2018-09-22T04:22:13.218Z,68.64
2018-09-22T04:22:53.562Z,68.93
2018-09-22T04:23:34.111Z,68.64
2018-09-22T04:24:14.493Z,69.12
2018-09-22T04:24:54.903Z,69.41
2018-09-22T04:25:35.331Z,69.12
2018-09-22T04:26:15.651Z,68.64
2018-09-22T04:26:56.092Z,69.02
2018-09-22T04:27:36.501Z,68.64
2018-09-22T04:28:16.976Z,68.93
2018-09-22T05:10:40.180Z,77.86
2018-09-22T05:11:20.553Z,78.09
2018-09-22T05:12:00.881Z,77.86
2018-09-22T05:12:41.342Z,77.99
2018-09-22T05:13:21.798Z,78.18
2018-09-22T05:14:02.167Z,77.8
2018-09-22T05:14:42.600Z,77.51
2018-09-22T05:15:23.123Z,77.99
2018-09-22T05:16:03.492Z,77.8
2018-09-22T05:16:43.873Z,77.42
2018-09-22T05:17:24.616Z,77.32
2018-09-22T05:18:04.820Z,77.32
2018-09-22T05:18:45.255Z,77.51
2018-09-22T05:19:25.708Z,77.42
2018-09-22T05:20:06.135Z,77.42
2018-09-22T05:20:46.528Z,76.75
2018-09-22T05:21:26.983Z,76.65
2018-09-22T05:22:07.318Z,77.42
2018-09-22T05:22:47.739Z,76.84
2018-09-22T05:23:28.219Z,76.75
2018-09-22T05:24:08.546Z,76.27
2018-09-22T05:24:49.032Z,76.37
2018-09-22T05:25:29.502Z,76.37
2018-09-22T05:26:09.780Z,76.37
2018-09-22T05:26:50.277Z,76.56
2018-09-22T05:27:30.826Z,76.46
2018-09-22T05:28:11.346Z,75.83
2018-09-22T05:28:51.746Z,76.03
2018-09-22T05:29:32.154Z,76.03
2018-09-22T05:30:12.582Z,75.45
2018-09-22T05:30:53.715Z,75.16
2018-09-22T05:31:34.111Z,75.45
2018-09-22T05:32:14.478Z,75.26
2018-09-22T05:32:54.889Z,75.07
2018-09-22T05:33:35.310Z,75.35
2018-09-22T05:34:15.723Z,74.78
2018-09-22T05:34:56.233Z,75.16
2018-09-22T05:35:36.608Z,74.69
2018-09-22T05:36:17.004Z,74.78
2018-09-22T05:36:57.390Z,74.69
2018-09-22T05:37:37.814Z,74.88
2018-09-22T05:38:18.170Z,74.78
2018-09-22T05:38:58.655Z,74.4
2018-09-22T05:39:39.015Z,74.88
2018-09-22T05:40:19.624Z,74.59
2018-09-22T05:41:00.379Z,74.49
2018-09-22T05:41:40.546Z,74.59
2018-09-22T05:42:21.821Z,73.73
2018-09-22T05:43:02.174Z,73.86
2018-09-22T05:43:43.183Z,73.58
2018-09-22T05:44:24.197Z,73.67
2018-09-22T05:45:04.896Z,73.29
2018-09-22T05:45:45.275Z,73.39
2018-09-22T05:46:25.655Z,73.58
2018-09-22T05:47:09.456Z,73.19
2018-09-22T05:47:48.700Z,73.29
2018-09-22T05:48:29.029Z,73.29
2018-09-22T05:49:09.441Z,72.91
2018-09-22T05:49:49.949Z,73.19
2018-09-22T05:50:30.301Z,73.29
2018-09-22T05:51:10.717Z,73
2018-09-22T05:51:51.272Z,73.39
2018-09-22T05:52:31.746Z,73.29
2018-09-22T05:53:11.922Z,73.48
2018-09-22T05:53:56.198Z,72.91
2018-09-22T05:54:34.572Z,73.23
2018-09-22T05:55:15.008Z,72.37
2018-09-22T05:55:55.395Z,71.99
2018-09-22T05:56:35.862Z,71.8
2018-09-22T05:57:16.367Z,71.7
2018-09-22T05:57:56.772Z,71.7
2018-09-22T05:58:37.227Z,71.8
2018-09-22T05:59:17.539Z,71.42
2018-09-22T05:59:58.616Z,71.22
2018-09-22T06:00:39.114Z,71.03
2018-09-22T06:01:19.600Z,71.03
2018-09-22T06:01:59.961Z,71.03
2018-09-22T06:02:42.151Z,70.94
2018-09-22T06:03:26.995Z,71.13
2018-09-22T06:04:07.077Z,71.03
2018-09-22T06:04:47.391Z,70.94
2018-09-22T06:05:28.477Z,71.03
2018-09-22T06:06:10.256Z,71.03
2018-09-22T06:06:51.048Z,71.03
2018-09-22T06:07:33.098Z,71.22
2018-09-22T06:08:13.570Z,71.32
2018-09-22T06:08:54.694Z,71.42
2018-09-22T06:09:37.215Z,71.8
2018-09-22T06:10:15.946Z,71.22
2018-09-22T06:10:57.347Z,71.13
2018-09-22T06:11:42.607Z,71.22
2018-09-22T06:12:24.001Z,71.22
2018-09-22T06:13:04.702Z,71.03
2018-09-22T06:13:45.192Z,71.03
2018-09-22T06:14:25.423Z,70.94
2018-09-22T06:15:06.153Z,70.75
2018-09-22T06:15:46.421Z,70.84
2018-09-22T06:16:27.442Z,70.75
2018-09-22T06:17:07.754Z,70.84
2018-09-22T06:17:48.342Z,70.65
2018-09-22T06:18:28.716Z,71.03
2018-09-22T06:19:09.067Z,70.65
2018-09-22T06:19:49.682Z,71.13
2018-09-22T06:20:30.585Z,70.56
2018-09-22T06:21:11.090Z,69.98
2018-09-22T06:21:51.477Z,69.82
2018-09-22T06:22:31.939Z,69.79
2018-09-22T06:23:12.645Z,70.11
2018-09-22T06:23:52.803Z,70.01
2018-09-22T06:24:33.372Z,69.64
2018-09-22T06:25:15.205Z,69.54
2018-09-22T06:25:54.896Z,69.44
2018-09-22T06:26:35.187Z,69.73
2018-09-22T06:27:15.548Z,69.35
2018-09-22T06:27:56.061Z,69.15
2018-09-22T06:28:36.562Z,69.35
2018-09-22T06:29:16.881Z,69.54
2018-09-22T06:29:57.259Z,69.64
2018-09-22T06:30:37.782Z,69.35
2018-09-22T06:31:18.354Z,69.06
2018-09-22T06:31:58.617Z,68.68
2018-09-22T06:32:39.054Z,68.68
2018-09-22T06:33:19.863Z,69.06
2018-09-22T06:34:00.571Z,69.25
2018-09-22T06:34:41.000Z,69.35
2018-09-22T06:35:21.463Z,69.15
2018-09-22T06:36:01.978Z,68.96
2018-09-22T06:36:42.474Z,68.68
2018-09-22T06:37:22.811Z,68.68
2018-09-22T06:38:03.251Z,68.87
2018-09-22T06:38:43.737Z,68.96
2018-09-22T06:39:24.453Z,69.15
2018-09-22T06:40:04.424Z,68.58
2018-09-22T06:40:44.968Z,68.87
2018-09-22T06:41:25.327Z,68.1
2018-09-22T06:42:05.689Z,68.68
2018-09-22T06:42:46.222Z,69.06
2018-09-22T06:43:26.574Z,68.68
2018-09-22T06:44:07.003Z,68.96
2018-09-22T06:44:47.423Z,69.09
2018-09-22T06:45:27.880Z,68.04
2018-09-22T06:46:08.313Z,67.66
2018-09-22T06:46:48.727Z,68.52
2018-09-22T06:47:31.674Z,68.42
2018-09-22T06:48:11.868Z,68.33
2018-09-22T06:48:52.281Z,68.23
2018-09-22T06:49:32.685Z,68.13
2018-09-22T06:50:13.167Z,67.66
2018-09-22T06:50:53.634Z,67.37
2018-09-22T06:51:39.228Z,67.21
2018-09-22T06:52:22.909Z,66.25
2018-09-22T06:53:02.459Z,65.88
2018-09-22T06:53:42.926Z,65.97
2018-09-22T06:54:23.422Z,66.64
2018-09-22T06:56:24.327Z,65.88
2018-09-22T06:57:05.126Z,65.49
2018-09-22T06:57:45.518Z,65.49
2018-09-22T06:58:25.975Z,65.58
2018-09-22T06:59:06.620Z,65.14
2018-09-22T06:59:47.198Z,65.23
2018-09-22T07:00:27.711Z,64.95
2018-09-22T07:01:13.199Z,65.14
2018-09-22T07:01:58.957Z,64.95
2018-09-22T07:02:39.415Z,64.85
2018-09-22T07:03:20.377Z,64.85
2018-09-22T07:04:05.323Z,64.47
2018-09-22T07:04:45.868Z,64.47
2018-09-22T07:05:26.239Z,64.47
2018-09-22T07:06:08.613Z,64.37
2018-09-22T07:06:49.761Z,64.66
2018-09-22T07:07:30.649Z,63.99
2018-09-22T07:08:11.966Z,64.28
2018-09-22T07:08:54.399Z,64.18
2018-09-22T07:09:34.932Z,63.99
2018-09-22T07:10:15.385Z,64.18
2018-09-22T07:10:56.692Z,64.09
2018-09-22T07:11:37.130Z,63.89
2018-09-22T07:12:18.655Z,63.89
2018-09-22T07:12:59.974Z,63.6
2018-09-22T07:13:41.020Z,63.8
2018-09-22T07:14:22.687Z,63.64
2018-09-22T07:15:06.832Z,63.54
2018-09-22T07:15:50.092Z,63.06
2018-09-22T07:16:30.703Z,63.35
2018-09-22T07:17:11.327Z,62.87
2018-09-22T07:17:51.644Z,63.06
2018-09-22T07:18:33.135Z,62.59
2018-09-22T07:19:13.721Z,62.59
2018-09-22T07:19:54.292Z,62.62
2018-09-22T07:20:34.726Z,62.42
2018-09-22T07:21:15.673Z,61.94
2018-09-22T07:21:55.747Z,62.59
2018-09-22T07:22:37.155Z,62.23
2018-09-22T07:23:17.481Z,62.23
2018-09-22T07:23:58.674Z,62.13
2018-09-22T07:24:42.617Z,62.23
2018-09-22T07:25:22.046Z,62.23
2018-09-22T07:26:02.825Z,61.37
2018-09-22T07:26:44.663Z,61.08
2018-09-22T07:28:30.025Z,60.53
2018-09-22T07:29:10.844Z,60.15
2018-09-22T07:29:55.649Z,60.35
2018-09-22T07:30:36.773Z,60.15
2018-09-22T07:31:17.205Z,60.05
2018-09-22T07:32:04.854Z,59.96
2018-09-22T07:32:45.535Z,59.38
2018-09-22T07:33:32.582Z,59.12
2018-09-22T07:34:13.363Z,58.55
2018-09-22T07:34:54.470Z,58.74
2018-09-22T07:35:37.379Z,58.07
2018-09-22T07:36:19.413Z,58.45
2018-09-22T07:37:01.524Z,57.59
2018-09-22T07:37:44.692Z,57.52
2018-09-22T07:38:30.603Z,57.52
2018-09-22T07:39:11.603Z,56.66
2018-09-22T07:39:57.153Z,56.85
2018-09-22T07:40:40.901Z,57.04
2018-09-22T07:41:22.269Z,56.3
2018-09-22T07:42:03.664Z,55.44
2018-09-22T07:42:44.476Z,55.34
2018-09-22T07:43:28.325Z,54.96
2018-09-22T07:44:08.930Z,55.05
2018-09-22T07:44:49.411Z,54.57
2018-09-22T07:45:30.295Z,54.09
2018-09-22T07:48:09.775Z,54.5
2018-09-22T07:48:50.102Z,53.92
2018-09-22T07:49:31.324Z,54.22
2018-09-22T07:50:17.852Z,54.12
2018-09-22T07:50:57.771Z,53.19
2018-09-22T07:51:38.470Z,52.8
2018-09-22T07:52:21.709Z,52.8
2018-09-22T07:53:03.209Z,52.42
2018-09-22T07:53:43.935Z,52.22
2018-09-22T07:54:25.644Z,51.86
2018-09-22T07:55:06.389Z,51.57
2018-09-22T07:55:48.872Z,51.76
2018-09-22T07:56:30.814Z,50.81
2018-09-22T07:57:14.146Z,50.61
2018-09-22T07:57:55.105Z,50.61
2018-09-22T07:58:35.388Z,50.51
2018-09-22T07:59:16.330Z,50.73
2018-09-22T08:00:00.150Z,50.63
2018-09-22T08:00:43.123Z,49.96
2018-09-22T08:01:24.008Z,49.38
2018-09-22T08:02:06.016Z,49.41
2018-09-22T08:02:48.008Z,49.48
2018-09-22T08:03:29.483Z,49.48
2018-09-22T08:04:12.859Z,48.61
2018-09-22T08:04:53.471Z,48.81
2018-09-22T08:05:34.151Z,49.41
2018-09-22T08:06:14.993Z,48.93
2018-09-22T08:06:57.177Z,48.35
2018-09-22T08:07:37.818Z,48.54
2018-09-22T08:08:18.234Z,48.66
2018-09-22T08:09:05.799Z,47.99
2018-09-22T08:09:46.116Z,47.8
2018-09-22T08:10:27.532Z,47.87
2018-09-22T08:11:12.177Z,47.89
2018-09-22T08:11:54.348Z,47.6
2018-09-22T08:12:34.602Z,47.99
2018-09-22T08:13:15.049Z,47.51
2018-09-22T08:13:56.079Z,47.31
2018-09-22T08:14:36.711Z,47.67
2018-09-22T08:15:17.477Z,47.6
2018-09-22T08:15:58.780Z,47.49
2018-09-22T08:16:39.112Z,47.58
2018-09-22T08:17:20.629Z,47.7
2018-09-22T08:18:05.895Z,47.58
2018-09-22T08:18:46.451Z,47.49
2018-09-22T08:19:27.289Z,47.7
2018-09-22T08:20:07.776Z,47.19
2018-09-22T08:20:49.439Z,47.97
2018-09-22T08:21:31.252Z,48.13
2018-09-22T08:22:12.698Z,48.43
2018-09-22T08:22:53.762Z,48.61
2018-09-22T08:23:37.092Z,48.61
2018-09-22T08:24:19.324Z,48.64
2018-09-22T08:25:00.456Z,48.44
2018-09-22T08:25:40.558Z,48.93
2018-09-22T08:26:21.843Z,48.93
2018-09-22T08:27:02.307Z,48.35
2018-09-22T08:27:42.773Z,47.58
2018-09-22T08:28:25.164Z,47.97
2018-09-22T08:29:05.524Z,47.77
2018-09-22T08:29:48.176Z,47.89
2018-09-22T08:30:28.639Z,47.89
2018-09-22T08:31:09.773Z,47.12
2018-09-22T08:31:50.706Z,47.51
2018-09-22T08:32:31.334Z,46.45
2018-09-22T08:33:13.540Z,46.64
2018-09-22T08:33:56.048Z,46.55
2018-09-22T08:34:36.424Z,46.93
2018-09-22T08:35:17.240Z,46.64
2018-09-22T08:36:10.865Z,47.29
2018-09-22T08:36:51.641Z,47.1
2018-09-22T08:37:32.187Z,47.49
2018-09-22T08:38:13.592Z,47
2018-09-22T08:38:55.063Z,47
2018-09-22T08:39:35.154Z,46.91
2018-09-22T08:40:16.830Z,46.78
2018-09-22T08:40:58.250Z,47.77
2018-09-22T08:41:38.547Z,47.87
2018-09-22T08:42:19.475Z,47.65
2018-09-22T08:43:01.714Z,47.65
2018-09-22T08:43:43.119Z,47.77
2018-09-22T08:44:23.633Z,47.58
2018-09-22T08:45:04.540Z,47.49
2018-09-22T08:45:45.345Z,47.85
2018-09-22T08:46:27.277Z,48.13
2018-09-22T08:47:10.700Z,48.43
2018-09-22T08:47:51.396Z,48.43
2018-09-22T08:48:32.734Z,48.52
2018-09-22T08:49:13.872Z,48.43
2018-09-22T08:49:54.474Z,48.71
2018-09-22T08:50:35.439Z,48.33
2018-09-22T08:51:18.026Z,48.23
2018-09-22T08:51:59.259Z,48.13
2018-09-22T08:52:40.345Z,47.65
2018-09-22T08:53:21.276Z,47.85
2018-09-22T08:54:03.374Z,47.65
2018-09-22T08:54:44.902Z,47.94
2018-09-22T08:55:26.648Z,48.13
2018-09-22T08:56:08.389Z,48.03
2018-09-22T08:56:50.417Z,48.13
2018-09-22T08:57:30.121Z,48.13
2018-09-22T08:58:11.377Z,47.94
2018-09-22T08:58:52.367Z,47.36
2018-09-22T08:59:35.805Z,46.91
2018-09-22T09:00:16.512Z,46.62
2018-09-22T09:00:59.866Z,46.42
2018-09-22T09:01:40.999Z,46.81
2018-09-22T09:02:29.056Z,46.64
2018-09-22T09:03:09.475Z,46.55
2018-09-22T09:03:49.846Z,45.77
2018-09-22T09:04:30.396Z,45
2018-09-22T09:05:11.418Z,45.21
2018-09-22T09:05:52.294Z,44.73
2018-09-22T09:06:32.891Z,44.37
2018-09-22T09:07:13.439Z,44.06
2018-09-22T09:07:54.028Z,43.31
2018-09-22T09:08:35.078Z,43.6
2018-09-22T09:09:15.943Z,43.31
2018-09-22T09:09:55.545Z,42.9
2018-09-22T09:10:37.404Z,43.67
2018-09-22T09:11:19.573Z,43.1
2018-09-22T09:12:00.000Z,43.02
2018-09-22T09:12:40.762Z,43.21
2018-09-22T09:13:21.348Z,42.83
2018-09-22T09:14:01.784Z,41.77
2018-09-22T09:14:42.340Z,41.98
2018-09-22T09:15:22.889Z,42.08
2018-09-22T09:16:03.339Z,41.6
2018-09-22T09:16:44.748Z,41.5
2018-09-22T09:17:24.554Z,41.5
2018-09-22T09:18:04.999Z,41.33
2018-09-22T09:18:50.393Z,41.5
2018-09-22T09:19:31.911Z,41.02
2018-09-22T09:20:12.677Z,40.44
2018-09-22T09:20:53.610Z,41.3
2018-09-22T09:21:34.128Z,41.4
2018-09-22T09:22:15.397Z,41.4
2018-09-22T09:22:56.135Z,41.38
2018-09-22T09:23:38.394Z,42.23
2018-09-22T09:24:18.597Z,42.9
2018-09-22T09:25:00.695Z,43.1
2018-09-22T09:25:42.252Z,43.1
2018-09-22T09:26:22.738Z,43.1
2018-09-22T09:27:03.409Z,43.77
2018-09-22T09:27:44.392Z,43.38
2018-09-22T09:28:25.130Z,43.46
2018-09-22T09:29:05.519Z,43.96
2018-09-22T09:29:47.115Z,44.23
2018-09-22T09:30:27.655Z,44.52
2018-09-22T09:31:08.766Z,44.32
2018-09-22T09:31:49.795Z,44.32
2018-09-22T09:32:31.490Z,45.29
2018-09-22T09:33:12.353Z,45.29
2018-09-22T09:33:52.550Z,44.52
2018-09-22T09:34:33.792Z,45
2018-09-22T09:35:14.599Z,45.29
2018-09-22T09:35:56.011Z,45.29
2018-09-22T09:36:36.511Z,44.71
2018-09-22T09:37:17.839Z,45.21
2018-09-22T09:37:59.100Z,45.12
2018-09-22T09:38:42.379Z,45.31
2018-09-22T09:39:23.039Z,44.64
2018-09-22T09:40:03.798Z,44.25
2018-09-22T09:40:44.278Z,44.06
2018-09-22T09:41:24.751Z,44.45
2018-09-22T09:42:05.401Z,44.32
2018-09-22T09:42:46.438Z,44.64
2018-09-22T09:43:27.076Z,44.64
2018-09-22T09:44:08.496Z,44.45
2018-09-22T09:44:48.723Z,44.45
2018-09-22T09:45:30.086Z,44.15
2018-09-22T09:46:10.341Z,44.52
2018-09-22T09:46:51.923Z,44.06
2018-09-22T09:47:32.853Z,44.54
2018-09-22T09:48:13.448Z,44.35
2018-09-22T09:48:54.148Z,44.35
2018-09-22T09:49:34.950Z,44.45
2018-09-22T09:50:15.497Z,44.35
2018-09-22T09:50:56.886Z,44.64
2018-09-22T09:51:38.526Z,44.35
2018-09-22T09:52:18.789Z,44.54
2018-09-22T09:53:01.631Z,44.54
2018-09-22T09:53:41.714Z,44.52
2018-09-22T09:54:22.295Z,44.45
2018-09-22T09:55:02.874Z,44.35
2018-09-22T09:55:44.951Z,44.54
2018-09-22T09:56:27.182Z,44.54
2018-09-22T09:57:09.136Z,44.64
2018-09-22T09:57:49.874Z,44.64
2018-09-22T09:58:30.490Z,44.54
2018-09-22T09:59:11.733Z,44.71
2018-09-22T09:59:52.168Z,45.1
2018-09-22T10:00:33.238Z,45.2
2018-09-22T10:01:14.803Z,45.2
2018-09-22T10:01:55.612Z,45.1
2018-09-22T10:02:37.136Z,45.2
2018-09-22T10:03:18.098Z,45.29
2018-09-22T10:03:59.006Z,45.77
2018-09-22T10:04:39.916Z,45.29
2018-09-22T10:05:21.209Z,45.77
2018-09-22T10:06:01.630Z,45.77
2018-09-22T10:06:48.229Z,45.58
2018-09-22T10:07:28.700Z,45.77